sensor_id;sensor_type;location;lat;lon;timestamp;temperature;humidity
10312;DHT22;5201;48.776;9.128;2023-12-20T00:00:14;6.90;99.90
10312;DHT22;5201;48.776;9.128;2023-12-20T00:02:39;6.80;99.90
10312;DHT22;5201;48.776;9.128;2023-12-20T00:05:05;6.70;99.90
10312;DHT22;5201;48.776;9.128;2023-12-20T00:07:31;6.60;99.90
10312;DHT22;5201;48.776;9.128;2023-12-20T00:09:57;6.70;99.90
10312;DHT22;5201;48.776;9.128;2023-12-20T00:12:22;6.90;99.90
10312;DHT22;5201;48.776;9.128;2023-12-20T00:14:48;7.00;99.90
10312;DHT22;5201;48.776;9.128;2023-12-20T00:17:13;6.90;99.90
10312;DHT22;5201;48.776;9.128;2023-12-20T00:19:39;6.80;99.90
10312;DHT22;5201;48.776;9.128;2023-12-20T00:22:04;7.00;99.90
10312;DHT22;5201;48.776;9.128;2023-12-20T00:24:30;6.90;99.90
10312;DHT22;5201;48.776;9.128;2023-12-20T00:26:56;6.70;99.90
10312;DHT22;5201;48.776;9.128;2023-12-20T00:29:21;6.70;99.90
10312;DHT22;5201;48.776;9.128;2023-12-20T00:31:47;6.70;99.90
10312;DHT22;5201;48.776;9.128;2023-12-20T00:34:12;6.70;99.90
10312;DHT22;5201;48.776;9.128;2023-12-20T00:36:38;6.60;99.90
10312;DHT22;5201;48.776;9.128;2023-12-20T00:39:03;6.60;99.90
10312;DHT22;5201;48.776;9.128;2023-12-20T00:41:29;6.80;99.90
10312;DHT22;5201;48.776;9.128;2023-12-20T00:43:55;6.80;99.90
10312;DHT22;5201;48.776;9.128;2023-12-20T00:46:20;6.90;99.90
10312;DHT22;5201;48.776;9.128;2023-12-20T00:48:46;6.90;99.90
10312;DHT22;5201;48.776;9.128;2023-12-20T00:51:12;6.90;99.90
10312;DHT22;5201;48.776;9.128;2023-12-20T00:53:37;6.90;99.90
10312;DHT22;5201;48.776;9.128;2023-12-20T00:56:03;6.90;99.90
10312;DHT22;5201;48.776;9.128;2023-12-20T00:58:29;6.80;99.90
10312;DHT22;5201;48.776;9.128;2023-12-20T01:00:54;6.80;99.90
10312;DHT22;5201;48.776;9.128;2023-12-20T01:03:20;6.70;99.90
10312;DHT22;5201;48.776;9.128;2023-12-20T01:05:45;6.70;99.90
10312;DHT22;5201;48.776;9.128;2023-12-20T01:08:11;6.80;99.90
10312;DHT22;5201;48.776;9.128;2023-12-20T01:10:36;7.00;99.90
10312;DHT22;5201;48.776;9.128;2023-12-20T01:13:05;7.10;99.90
10312;DHT22;5201;48.776;9.128;2023-12-20T01:15:31;7.10;99.90
10312;DHT22;5201;48.776;9.128;2023-12-20T01:17:56;7.00;99.90
10312;DHT22;5201;48.776;9.128;2023-12-20T01:20:24;7.00;99.90
10312;DHT22;5201;48.776;9.128;2023-12-20T01:22:49;7.00;99.90
10312;DHT22;5201;48.776;9.128;2023-12-20T01:25:15;7.00;99.90
10312;DHT22;5201;48.776;9.128;2023-12-20T01:27:40;7.00;99.90
10312;DHT22;5201;48.776;9.128;2023-12-20T01:30:06;6.90;99.90
10312;DHT22;5201;48.776;9.128;2023-12-20T01:32:32;6.80;99.90
10312;DHT22;5201;48.776;9.128;2023-12-20T01:34:57;6.80;99.90
10312;DHT22;5201;48.776;9.128;2023-12-20T01:37:23;6.60;99.90
10312;DHT22;5201;48.776;9.128;2023-12-20T01:39:50;6.60;99.90
10312;DHT22;5201;48.776;9.128;2023-12-20T01:42:16;6.70;99.90
10312;DHT22;5201;48.776;9.128;2023-12-20T01:44:41;6.70;99.90
10312;DHT22;5201;48.776;9.128;2023-12-20T01:47:08;6.70;99.90
10312;DHT22;5201;48.776;9.128;2023-12-20T01:49:33;6.70;99.90
10312;DHT22;5201;48.776;9.128;2023-12-20T01:51:59;6.80;99.90
10312;DHT22;5201;48.776;9.128;2023-12-20T01:54:25;6.10;99.90
10312;DHT22;5201;48.776;9.128;2023-12-20T01:56:51;6.90;99.90
10312;DHT22;5201;48.776;9.128;2023-12-20T01:59:18;6.80;99.90
10312;DHT22;5201;48.776;9.128;2023-12-20T02:01:44;6.70;99.90
10312;DHT22;5201;48.776;9.128;2023-12-20T02:04:10;6.70;99.90
10312;DHT22;5201;48.776;9.128;2023-12-20T02:06:35;6.70;99.90
10312;DHT22;5201;48.776;9.128;2023-12-20T02:09:03;6.80;99.90
10312;DHT22;5201;48.776;9.128;2023-12-20T02:11:29;6.90;99.90
10312;DHT22;5201;48.776;9.128;2023-12-20T02:13:54;7.00;99.90
10312;DHT22;5201;48.776;9.128;2023-12-20T02:16:21;7.10;99.90
10312;DHT22;5201;48.776;9.128;2023-12-20T02:18:47;7.40;99.90
10312;DHT22;5201;48.776;9.128;2023-12-20T02:21:12;7.10;99.90
10312;DHT22;5201;48.776;9.128;2023-12-20T02:23:38;7.30;99.90
10312;DHT22;5201;48.776;9.128;2023-12-20T02:26:04;7.10;99.90
10312;DHT22;5201;48.776;9.128;2023-12-20T02:28:32;7.10;99.90
10312;DHT22;5201;48.776;9.128;2023-12-20T02:30:57;7.10;99.90
10312;DHT22;5201;48.776;9.128;2023-12-20T02:33:23;7.10;99.90
10312;DHT22;5201;48.776;9.128;2023-12-20T02:35:49;7.10;99.90
10312;DHT22;5201;48.776;9.128;2023-12-20T02:38:14;7.10;99.90
10312;DHT22;5201;48.776;9.128;2023-12-20T02:40:40;7.10;99.90
10312;DHT22;5201;48.776;9.128;2023-12-20T02:43:05;7.10;99.90
10312;DHT22;5201;48.776;9.128;2023-12-20T02:45:31;7.20;99.90
10312;DHT22;5201;48.776;9.128;2023-12-20T02:47:56;7.20;99.90
10312;DHT22;5201;48.776;9.128;2023-12-20T02:50:22;7.30;99.90
10312;DHT22;5201;48.776;9.128;2023-12-20T02:52:47;7.20;99.90
10312;DHT22;5201;48.776;9.128;2023-12-20T02:55:13;7.20;99.90
10312;DHT22;5201;48.776;9.128;2023-12-20T02:57:39;7.30;99.90
10312;DHT22;5201;48.776;9.128;2023-12-20T03:00:08;7.30;99.90
10312;DHT22;5201;48.776;9.128;2023-12-20T03:02:35;7.30;99.90
10312;DHT22;5201;48.776;9.128;2023-12-20T03:05:01;7.40;99.90
10312;DHT22;5201;48.776;9.128;2023-12-20T03:07:26;7.40;99.90
10312;DHT22;5201;48.776;9.128;2023-12-20T03:09:52;7.40;99.90
10312;DHT22;5201;48.776;9.128;2023-12-20T03:12:18;7.30;99.90
10312;DHT22;5201;48.776;9.128;2023-12-20T03:14:44;7.30;99.90
10312;DHT22;5201;48.776;9.128;2023-12-20T03:17:10;7.20;99.90
10312;DHT22;5201;48.776;9.128;2023-12-20T03:19:35;7.30;99.90
10312;DHT22;5201;48.776;9.128;2023-12-20T03:22:01;7.20;99.90
10312;DHT22;5201;48.776;9.128;2023-12-20T03:24:27;7.30;99.90
10312;DHT22;5201;48.776;9.128;2023-12-20T03:26:53;7.30;99.90
10312;DHT22;5201;48.776;9.128;2023-12-20T03:29:18;7.40;99.90
10312;DHT22;5201;48.776;9.128;2023-12-20T03:31:44;7.40;99.90
10312;DHT22;5201;48.776;9.128;2023-12-20T03:34:09;7.20;99.90
10312;DHT22;5201;48.776;9.128;2023-12-20T03:36:36;7.20;99.90
10312;DHT22;5201;48.776;9.128;2023-12-20T03:39:01;7.30;99.90
10312;DHT22;5201;48.776;9.128;2023-12-20T03:41:27;7.20;99.90
10312;DHT22;5201;48.776;9.128;2023-12-20T03:43:52;7.30;99.90
10312;DHT22;5201;48.776;9.128;2023-12-20T03:46:18;7.30;99.90
10312;DHT22;5201;48.776;9.128;2023-12-20T03:48:43;7.20;99.90
10312;DHT22;5201;48.776;9.128;2023-12-20T03:51:09;7.10;99.90
10312;DHT22;5201;48.776;9.128;2023-12-20T03:53:34;7.10;99.90
10312;DHT22;5201;48.776;9.128;2023-12-20T03:56:00;7.10;99.90
10312;DHT22;5201;48.776;9.128;2023-12-20T03:58:26;7.00;99.90
10312;DHT22;5201;48.776;9.128;2023-12-20T04:00:51;7.10;99.90
10312;DHT22;5201;48.776;9.128;2023-12-20T04:03:17;7.10;99.90
10312;DHT22;5201;48.776;9.128;2023-12-20T04:05:42;7.00;99.90
10312;DHT22;5201;48.776;9.128;2023-12-20T04:08:09;7.00;99.90
10312;DHT22;5201;48.776;9.128;2023-12-20T04:10:34;7.00;99.90
10312;DHT22;5201;48.776;9.128;2023-12-20T04:13:00;7.00;99.90
10312;DHT22;5201;48.776;9.128;2023-12-20T04:15:25;6.90;99.90
10312;DHT22;5201;48.776;9.128;2023-12-20T04:17:51;6.80;99.90
10312;DHT22;5201;48.776;9.128;2023-12-20T04:20:17;6.70;99.90
10312;DHT22;5201;48.776;9.128;2023-12-20T04:22:42;7.30;99.90
10312;DHT22;5201;48.776;9.128;2023-12-20T04:25:08;6.90;99.90
10312;DHT22;5201;48.776;9.128;2023-12-20T04:27:34;6.70;99.90
10312;DHT22;5201;48.776;9.128;2023-12-20T04:29:59;7.00;99.90
10312;DHT22;5201;48.776;9.128;2023-12-20T04:32:25;6.80;99.90
10312;DHT22;5201;48.776;9.128;2023-12-20T04:34:50;6.80;99.90
10312;DHT22;5201;48.776;9.128;2023-12-20T04:37:16;6.80;99.90
10312;DHT22;5201;48.776;9.128;2023-12-20T04:39:41;6.60;99.90
10312;DHT22;5201;48.776;9.128;2023-12-20T04:42:07;6.60;99.90
10312;DHT22;5201;48.776;9.128;2023-12-20T04:44:33;6.50;99.90
10312;DHT22;5201;48.776;9.128;2023-12-20T04:46:59;6.60;99.90
10312;DHT22;5201;48.776;9.128;2023-12-20T04:49:25;6.60;99.90
10312;DHT22;5201;48.776;9.128;2023-12-20T04:51:51;6.50;99.90
10312;DHT22;5201;48.776;9.128;2023-12-20T04:54:16;6.70;99.90
10312;DHT22;5201;48.776;9.128;2023-12-20T04:56:42;6.30;99.90
10312;DHT22;5201;48.776;9.128;2023-12-20T04:59:08;6.30;99.90
10312;DHT22;5201;48.776;9.128;2023-12-20T05:01:33;6.40;99.90
10312;DHT22;5201;48.776;9.128;2023-12-20T05:03:59;6.30;99.90
10312;DHT22;5201;48.776;9.128;2023-12-20T05:06:24;6.50;99.90
10312;DHT22;5201;48.776;9.128;2023-12-20T05:08:50;6.50;99.90
10312;DHT22;5201;48.776;9.128;2023-12-20T05:11:15;6.50;99.90
10312;DHT22;5201;48.776;9.128;2023-12-20T05:13:41;6.40;99.90
10312;DHT22;5201;48.776;9.128;2023-12-20T05:16:07;6.40;99.90
10312;DHT22;5201;48.776;9.128;2023-12-20T05:18:34;6.40;99.90
10312;DHT22;5201;48.776;9.128;2023-12-20T05:21:00;6.40;99.90
10312;DHT22;5201;48.776;9.128;2023-12-20T05:23:25;6.40;99.90
10312;DHT22;5201;48.776;9.128;2023-12-20T05:25:51;6.30;99.90
10312;DHT22;5201;48.776;9.128;2023-12-20T05:28:16;6.30;99.90
10312;DHT22;5201;48.776;9.128;2023-12-20T05:30:42;6.30;99.90
10312;DHT22;5201;48.776;9.128;2023-12-20T05:33:08;6.70;99.90
10312;DHT22;5201;48.776;9.128;2023-12-20T05:35:34;6.30;99.90
10312;DHT22;5201;48.776;9.128;2023-12-20T05:38:00;6.20;99.90
10312;DHT22;5201;48.776;9.128;2023-12-20T05:40:26;6.10;99.90
10312;DHT22;5201;48.776;9.128;2023-12-20T05:42:51;6.20;99.90
10312;DHT22;5201;48.776;9.128;2023-12-20T05:45:17;6.20;99.90
10312;DHT22;5201;48.776;9.128;2023-12-20T05:47:42;6.10;99.90
10312;DHT22;5201;48.776;9.128;2023-12-20T05:50:08;6.20;99.90
10312;DHT22;5201;48.776;9.128;2023-12-20T05:52:34;6.10;99.90
10312;DHT22;5201;48.776;9.128;2023-12-20T05:55:00;6.20;99.90
10312;DHT22;5201;48.776;9.128;2023-12-20T05:57:27;6.10;99.90
10312;DHT22;5201;48.776;9.128;2023-12-20T05:59:52;6.20;99.90
10312;DHT22;5201;48.776;9.128;2023-12-20T06:02:18;6.30;99.90
10312;DHT22;5201;48.776;9.128;2023-12-20T06:04:43;6.30;99.90
10312;DHT22;5201;48.776;9.128;2023-12-20T06:07:12;6.30;99.90
10312;DHT22;5201;48.776;9.128;2023-12-20T06:09:38;6.40;99.90
10312;DHT22;5201;48.776;9.128;2023-12-20T06:12:04;6.40;99.90
10312;DHT22;5201;48.776;9.128;2023-12-20T06:14:30;6.50;99.90
10312;DHT22;5201;48.776;9.128;2023-12-20T06:16:56;6.60;99.90
10312;DHT22;5201;48.776;9.128;2023-12-20T06:19:22;6.60;99.90
10312;DHT22;5201;48.776;9.128;2023-12-20T06:21:48;6.60;99.90
10312;DHT22;5201;48.776;9.128;2023-12-20T06:24:13;6.60;99.90
10312;DHT22;5201;48.776;9.128;2023-12-20T06:26:39;6.60;99.90
10312;DHT22;5201;48.776;9.128;2023-12-20T06:29:04;6.60;99.90
10312;DHT22;5201;48.776;9.128;2023-12-20T06:31:30;6.60;99.90
10312;DHT22;5201;48.776;9.128;2023-12-20T06:33:58;6.60;99.90
10312;DHT22;5201;48.776;9.128;2023-12-20T06:36:25;6.70;99.90
10312;DHT22;5201;48.776;9.128;2023-12-20T06:38:51;6.70;99.90
10312;DHT22;5201;48.776;9.128;2023-12-20T06:41:17;6.50;99.90
10312;DHT22;5201;48.776;9.128;2023-12-20T06:43:42;6.50;99.90
10312;DHT22;5201;48.776;9.128;2023-12-20T06:46:08;6.50;99.90
10312;DHT22;5201;48.776;9.128;2023-12-20T06:48:34;6.50;99.90
10312;DHT22;5201;48.776;9.128;2023-12-20T06:51:00;6.50;99.90
10312;DHT22;5201;48.776;9.128;2023-12-20T06:53:27;6.50;99.90
10312;DHT22;5201;48.776;9.128;2023-12-20T06:55:53;6.50;99.90
10312;DHT22;5201;48.776;9.128;2023-12-20T06:58:19;6.50;99.90
10312;DHT22;5201;48.776;9.128;2023-12-20T07:00:44;6.60;99.90
10312;DHT22;5201;48.776;9.128;2023-12-20T07:03:10;6.60;99.90
10312;DHT22;5201;48.776;9.128;2023-12-20T07:05:35;6.50;99.90
10312;DHT22;5201;48.776;9.128;2023-12-20T07:08:01;6.50;99.90
10312;DHT22;5201;48.776;9.128;2023-12-20T07:10:27;6.60;99.90
10312;DHT22;5201;48.776;9.128;2023-12-20T07:12:52;7.10;99.90
10312;DHT22;5201;48.776;9.128;2023-12-20T07:15:21;6.80;99.90
10312;DHT22;5201;48.776;9.128;2023-12-20T07:17:46;6.80;99.90
10312;DHT22;5201;48.776;9.128;2023-12-20T07:20:12;7.10;99.90
10312;DHT22;5201;48.776;9.128;2023-12-20T07:22:37;6.90;99.90
10312;DHT22;5201;48.776;9.128;2023-12-20T07:25:03;6.90;99.90
10312;DHT22;5201;48.776;9.128;2023-12-20T07:27:29;6.80;99.90
10312;DHT22;5201;48.776;9.128;2023-12-20T07:29:55;6.90;99.90
10312;DHT22;5201;48.776;9.128;2023-12-20T07:32:20;6.90;99.90
10312;DHT22;5201;48.776;9.128;2023-12-20T07:34:46;6.80;99.90
10312;DHT22;5201;48.776;9.128;2023-12-20T07:37:11;6.60;99.90
10312;DHT22;5201;48.776;9.128;2023-12-20T07:39:39;6.50;99.90
10312;DHT22;5201;48.776;9.128;2023-12-20T07:42:05;6.50;99.90
10312;DHT22;5201;48.776;9.128;2023-12-20T07:44:31;6.50;99.90
10312;DHT22;5201;48.776;9.128;2023-12-20T07:46:57;6.50;99.90
10312;DHT22;5201;48.776;9.128;2023-12-20T07:49:23;6.30;99.90
10312;DHT22;5201;48.776;9.128;2023-12-20T07:51:48;6.20;99.90
10312;DHT22;5201;48.776;9.128;2023-12-20T07:54:15;6.30;99.90
10312;DHT22;5201;48.776;9.128;2023-12-20T07:56:41;6.30;99.90
10312;DHT22;5201;48.776;9.128;2023-12-20T07:59:07;6.20;99.90
10312;DHT22;5201;48.776;9.128;2023-12-20T08:01:32;6.30;99.90
10312;DHT22;5201;48.776;9.128;2023-12-20T08:03:58;6.30;99.90
10312;DHT22;5201;48.776;9.128;2023-12-20T08:06:23;6.20;99.90
10312;DHT22;5201;48.776;9.128;2023-12-20T08:08:49;6.20;99.90
10312;DHT22;5201;48.776;9.128;2023-12-20T08:11:15;6.20;99.90
10312;DHT22;5201;48.776;9.128;2023-12-20T08:13:40;6.30;99.90
10312;DHT22;5201;48.776;9.128;2023-12-20T08:16:06;6.00;99.90
10312;DHT22;5201;48.776;9.128;2023-12-20T08:18:31;6.00;99.90
10312;DHT22;5201;48.776;9.128;2023-12-20T08:20:57;5.90;99.90
10312;DHT22;5201;48.776;9.128;2023-12-20T08:23:22;5.80;99.90
10312;DHT22;5201;48.776;9.128;2023-12-20T08:25:49;5.90;99.90
10312;DHT22;5201;48.776;9.128;2023-12-20T08:28:14;6.00;99.90
10312;DHT22;5201;48.776;9.128;2023-12-20T08:30:40;6.10;99.90
10312;DHT22;5201;48.776;9.128;2023-12-20T08:33:06;6.20;99.90
10312;DHT22;5201;48.776;9.128;2023-12-20T08:35:36;6.10;99.90
10312;DHT22;5201;48.776;9.128;2023-12-20T08:38:02;6.20;99.90
10312;DHT22;5201;48.776;9.128;2023-12-20T08:40:29;6.20;99.90
10312;DHT22;5201;48.776;9.128;2023-12-20T08:42:55;6.20;99.90
10312;DHT22;5201;48.776;9.128;2023-12-20T08:45:20;6.20;99.90
10312;DHT22;5201;48.776;9.128;2023-12-20T08:47:46;6.10;99.90
10312;DHT22;5201;48.776;9.128;2023-12-20T08:50:12;6.10;99.90
10312;DHT22;5201;48.776;9.128;2023-12-20T08:52:38;6.00;99.90
10312;DHT22;5201;48.776;9.128;2023-12-20T08:55:04;5.90;99.90
10312;DHT22;5201;48.776;9.128;2023-12-20T08:57:29;5.80;99.90
10312;DHT22;5201;48.776;9.128;2023-12-20T08:59:57;5.90;99.90
10312;DHT22;5201;48.776;9.128;2023-12-20T09:02:22;5.80;99.90
10312;DHT22;5201;48.776;9.128;2023-12-20T09:04:48;5.80;99.90
10312;DHT22;5201;48.776;9.128;2023-12-20T09:07:27;6.00;99.90
10312;DHT22;5201;48.776;9.128;2023-12-20T09:09:53;6.10;99.90
10312;DHT22;5201;48.776;9.128;2023-12-20T09:12:20;5.90;99.90
10312;DHT22;5201;48.776;9.128;2023-12-20T09:14:49;5.80;99.90
10312;DHT22;5201;48.776;9.128;2023-12-20T09:17:16;5.90;99.90
10312;DHT22;5201;48.776;9.128;2023-12-20T09:19:42;5.90;99.90
10312;DHT22;5201;48.776;9.128;2023-12-20T09:22:11;6.00;99.90
10312;DHT22;5201;48.776;9.128;2023-12-20T09:24:37;6.10;99.90
10312;DHT22;5201;48.776;9.128;2023-12-20T09:27:04;6.00;99.90
10312;DHT22;5201;48.776;9.128;2023-12-20T09:29:31;6.00;99.90
10312;DHT22;5201;48.776;9.128;2023-12-20T09:31:56;6.00;99.90
10312;DHT22;5201;48.776;9.128;2023-12-20T09:34:23;6.00;99.90
10312;DHT22;5201;48.776;9.128;2023-12-20T09:36:49;5.90;99.90
10312;DHT22;5201;48.776;9.128;2023-12-20T09:39:16;5.90;99.90
10312;DHT22;5201;48.776;9.128;2023-12-20T09:41:45;5.90;99.90
10312;DHT22;5201;48.776;9.128;2023-12-20T09:44:16;5.90;99.90
10312;DHT22;5201;48.776;9.128;2023-12-20T09:46:45;5.90;99.90
10312;DHT22;5201;48.776;9.128;2023-12-20T09:49:14;5.90;99.90
10312;DHT22;5201;48.776;9.128;2023-12-20T09:51:41;6.00;99.90
10312;DHT22;5201;48.776;9.128;2023-12-20T09:54:07;6.10;99.90
10312;DHT22;5201;48.776;9.128;2023-12-20T09:56:33;6.50;99.90
10312;DHT22;5201;48.776;9.128;2023-12-20T09:58:59;6.10;99.90
10312;DHT22;5201;48.776;9.128;2023-12-20T10:01:25;6.10;99.90
10312;DHT22;5201;48.776;9.128;2023-12-20T10:03:54;6.10;99.90
10312;DHT22;5201;48.776;9.128;2023-12-20T10:06:21;6.10;99.90
10312;DHT22;5201;48.776;9.128;2023-12-20T10:08:47;6.10;99.90
10312;DHT22;5201;48.776;9.128;2023-12-20T10:11:13;6.20;99.90
10312;DHT22;5201;48.776;9.128;2023-12-20T10:13:40;6.20;99.90
10312;DHT22;5201;48.776;9.128;2023-12-20T10:16:09;6.30;99.90
10312;DHT22;5201;48.776;9.128;2023-12-20T10:18:35;6.30;99.90
10312;DHT22;5201;48.776;9.128;2023-12-20T10:21:01;6.30;99.90
10312;DHT22;5201;48.776;9.128;2023-12-20T10:23:28;6.30;99.90
10312;DHT22;5201;48.776;9.128;2023-12-20T10:25:58;6.40;99.90
10312;DHT22;5201;48.776;9.128;2023-12-20T10:28:24;6.50;99.90
10312;DHT22;5201;48.776;9.128;2023-12-20T10:30:53;6.70;99.90
10312;DHT22;5201;48.776;9.128;2023-12-20T10:33:26;6.70;99.90
10312;DHT22;5201;48.776;9.128;2023-12-20T10:35:52;6.70;99.90
10312;DHT22;5201;48.776;9.128;2023-12-20T10:38:19;6.70;99.90
10312;DHT22;5201;48.776;9.128;2023-12-20T10:40:45;6.70;99.90
10312;DHT22;5201;48.776;9.128;2023-12-20T10:43:12;6.80;99.90
10312;DHT22;5201;48.776;9.128;2023-12-20T10:45:37;7.20;99.90
10312;DHT22;5201;48.776;9.128;2023-12-20T10:48:04;6.80;99.90
10312;DHT22;5201;48.776;9.128;2023-12-20T10:50:30;6.80;99.90
10312;DHT22;5201;48.776;9.128;2023-12-20T10:52:57;6.90;99.90
10312;DHT22;5201;48.776;9.128;2023-12-20T10:55:23;7.00;99.90
10312;DHT22;5201;48.776;9.128;2023-12-20T10:57:51;6.90;99.90
10312;DHT22;5201;48.776;9.128;2023-12-20T11:00:18;7.00;99.90
10312;DHT22;5201;48.776;9.128;2023-12-20T11:02:44;7.00;99.90
10312;DHT22;5201;48.776;9.128;2023-12-20T11:07:54;6.90;99.90
10312;DHT22;5201;48.776;9.128;2023-12-20T11:10:26;6.90;99.90
10312;DHT22;5201;48.776;9.128;2023-12-20T11:12:59;6.90;99.90
10312;DHT22;5201;48.776;9.128;2023-12-20T11:15:28;6.80;99.90
10312;DHT22;5201;48.776;9.128;2023-12-20T11:17:57;6.80;99.90
10312;DHT22;5201;48.776;9.128;2023-12-20T11:20:24;6.70;99.90
10312;DHT22;5201;48.776;9.128;2023-12-20T11:23:00;6.80;99.90
10312;DHT22;5201;48.776;9.128;2023-12-20T11:25:26;6.80;99.90
10312;DHT22;5201;48.776;9.128;2023-12-20T11:28:07;6.80;99.90
10312;DHT22;5201;48.776;9.128;2023-12-20T11:30:51;6.70;99.90
10312;DHT22;5201;48.776;9.128;2023-12-20T11:33:17;6.60;99.90
10312;DHT22;5201;48.776;9.128;2023-12-20T11:35:46;6.60;99.90
10312;DHT22;5201;48.776;9.128;2023-12-20T11:38:14;6.50;99.90
10312;DHT22;5201;48.776;9.128;2023-12-20T11:40:41;6.50;99.90
10312;DHT22;5201;48.776;9.128;2023-12-20T11:43:07;6.60;99.90
10312;DHT22;5201;48.776;9.128;2023-12-20T11:45:33;6.50;99.90
10312;DHT22;5201;48.776;9.128;2023-12-20T11:48:02;6.50;99.90
10312;DHT22;5201;48.776;9.128;2023-12-20T11:50:28;7.10;99.90
10312;DHT22;5201;48.776;9.128;2023-12-20T11:52:55;6.60;99.90
10312;DHT22;5201;48.776;9.128;2023-12-20T11:55:22;6.60;99.90
10312;DHT22;5201;48.776;9.128;2023-12-20T11:57:47;6.60;99.90
10312;DHT22;5201;48.776;9.128;2023-12-20T12:00:14;6.60;99.90
10312;DHT22;5201;48.776;9.128;2023-12-20T12:02:40;6.50;99.90
10312;DHT22;5201;48.776;9.128;2023-12-20T12:05:06;6.50;99.90
10312;DHT22;5201;48.776;9.128;2023-12-20T12:07:33;6.50;99.90
10312;DHT22;5201;48.776;9.128;2023-12-20T12:09:58;6.50;99.90
10312;DHT22;5201;48.776;9.128;2023-12-20T12:12:24;6.40;99.90
10312;DHT22;5201;48.776;9.128;2023-12-20T12:14:52;6.30;99.90
10312;DHT22;5201;48.776;9.128;2023-12-20T12:17:18;6.40;99.90
10312;DHT22;5201;48.776;9.128;2023-12-20T12:19:44;7.00;99.90
10312;DHT22;5201;48.776;9.128;2023-12-20T12:22:14;6.60;99.90
10312;DHT22;5201;48.776;9.128;2023-12-20T12:24:44;6.60;99.90
10312;DHT22;5201;48.776;9.128;2023-12-20T12:27:10;6.60;99.90
10312;DHT22;5201;48.776;9.128;2023-12-20T12:29:36;6.60;99.90
10312;DHT22;5201;48.776;9.128;2023-12-20T12:32:06;6.60;99.90
10312;DHT22;5201;48.776;9.128;2023-12-20T12:34:33;6.80;99.90
10312;DHT22;5201;48.776;9.128;2023-12-20T12:37:03;6.80;99.90
10312;DHT22;5201;48.776;9.128;2023-12-20T12:39:29;6.90;99.90
10312;DHT22;5201;48.776;9.128;2023-12-20T12:41:56;7.10;99.90
10312;DHT22;5201;48.776;9.128;2023-12-20T12:44:22;7.20;99.90
10312;DHT22;5201;48.776;9.128;2023-12-20T12:46:50;7.30;99.90
10312;DHT22;5201;48.776;9.128;2023-12-20T12:49:16;7.30;99.90
10312;DHT22;5201;48.776;9.128;2023-12-20T12:51:42;7.30;99.90
10312;DHT22;5201;48.776;9.128;2023-12-20T12:54:09;7.30;99.90
10312;DHT22;5201;48.776;9.128;2023-12-20T12:56:35;7.40;99.90
10312;DHT22;5201;48.776;9.128;2023-12-20T12:59:01;7.20;99.90
10312;DHT22;5201;48.776;9.128;2023-12-20T13:01:27;7.10;99.90
10312;DHT22;5201;48.776;9.128;2023-12-20T13:03:52;7.00;99.90
10312;DHT22;5201;48.776;9.128;2023-12-20T13:06:18;7.10;99.90
10312;DHT22;5201;48.776;9.128;2023-12-20T13:08:43;6.90;99.90
10312;DHT22;5201;48.776;9.128;2023-12-20T13:11:10;6.90;99.90
10312;DHT22;5201;48.776;9.128;2023-12-20T13:13:35;6.90;99.90
10312;DHT22;5201;48.776;9.128;2023-12-20T13:16:01;6.90;99.90
10312;DHT22;5201;48.776;9.128;2023-12-20T13:18:26;6.90;99.90
10312;DHT22;5201;48.776;9.128;2023-12-20T13:20:52;6.90;99.90
10312;DHT22;5201;48.776;9.128;2023-12-20T13:23:17;6.90;99.90
10312;DHT22;5201;48.776;9.128;2023-12-20T13:25:44;6.70;99.90
10312;DHT22;5201;48.776;9.128;2023-12-20T13:28:11;6.60;99.90
10312;DHT22;5201;48.776;9.128;2023-12-20T13:30:36;6.90;99.90
10312;DHT22;5201;48.776;9.128;2023-12-20T13:33:02;7.00;99.90
10312;DHT22;5201;48.776;9.128;2023-12-20T13:35:28;6.70;99.90
10312;DHT22;5201;48.776;9.128;2023-12-20T13:37:53;6.70;99.90
10312;DHT22;5201;48.776;9.128;2023-12-20T13:40:19;6.70;99.90
10312;DHT22;5201;48.776;9.128;2023-12-20T13:42:45;6.50;99.90
10312;DHT22;5201;48.776;9.128;2023-12-20T13:45:11;6.60;99.90
10312;DHT22;5201;48.776;9.128;2023-12-20T13:47:36;6.60;99.90
10312;DHT22;5201;48.776;9.128;2023-12-20T13:50:03;6.70;99.90
10312;DHT22;5201;48.776;9.128;2023-12-20T13:52:29;6.70;99.90
10312;DHT22;5201;48.776;9.128;2023-12-20T13:54:55;6.90;99.90
10312;DHT22;5201;48.776;9.128;2023-12-20T13:57:20;7.10;99.90
10312;DHT22;5201;48.776;9.128;2023-12-20T13:59:46;7.20;99.90
10312;DHT22;5201;48.776;9.128;2023-12-20T14:02:11;6.80;99.90
10312;DHT22;5201;48.776;9.128;2023-12-20T14:04:37;6.80;99.90
10312;DHT22;5201;48.776;9.128;2023-12-20T14:07:04;6.90;99.90
10312;DHT22;5201;48.776;9.128;2023-12-20T14:09:30;7.40;99.90
10312;DHT22;5201;48.776;9.128;2023-12-20T14:11:55;6.80;99.90
10312;DHT22;5201;48.776;9.128;2023-12-20T14:14:22;6.80;99.90
10312;DHT22;5201;48.776;9.128;2023-12-20T14:16:47;6.70;99.90
10312;DHT22;5201;48.776;9.128;2023-12-20T14:19:13;6.60;99.90
10312;DHT22;5201;48.776;9.128;2023-12-20T14:21:38;6.60;99.90
10312;DHT22;5201;48.776;9.128;2023-12-20T14:24:04;6.70;99.90
10312;DHT22;5201;48.776;9.128;2023-12-20T14:26:30;6.70;99.90
10312;DHT22;5201;48.776;9.128;2023-12-20T14:28:57;6.70;99.90
10312;DHT22;5201;48.776;9.128;2023-12-20T14:31:23;6.60;99.90
10312;DHT22;5201;48.776;9.128;2023-12-20T14:33:50;6.90;99.90
10312;DHT22;5201;48.776;9.128;2023-12-20T14:36:18;6.50;99.90
10312;DHT22;5201;48.776;9.128;2023-12-20T14:38:45;7.10;99.90
10312;DHT22;5201;48.776;9.128;2023-12-20T14:41:12;6.60;99.90
10312;DHT22;5201;48.776;9.128;2023-12-20T14:43:38;6.60;99.90
10312;DHT22;5201;48.776;9.128;2023-12-20T14:46:03;6.40;99.90
10312;DHT22;5201;48.776;9.128;2023-12-20T14:48:31;6.40;99.90
10312;DHT22;5201;48.776;9.128;2023-12-20T14:50:57;6.50;99.90
10312;DHT22;5201;48.776;9.128;2023-12-20T14:53:24;6.50;99.90
10312;DHT22;5201;48.776;9.128;2023-12-20T14:55:50;6.50;99.90
10312;DHT22;5201;48.776;9.128;2023-12-20T14:58:16;6.40;99.90
10312;DHT22;5201;48.776;9.128;2023-12-20T15:00:42;6.40;99.90
10312;DHT22;5201;48.776;9.128;2023-12-20T15:03:09;6.30;99.90
10312;DHT22;5201;48.776;9.128;2023-12-20T15:05:34;6.50;99.90
10312;DHT22;5201;48.776;9.128;2023-12-20T15:08:01;6.30;99.90
10312;DHT22;5201;48.776;9.128;2023-12-20T15:10:27;6.40;99.90
10312;DHT22;5201;48.776;9.128;2023-12-20T15:12:52;6.50;99.90
10312;DHT22;5201;48.776;9.128;2023-12-20T15:15:18;6.50;99.90
10312;DHT22;5201;48.776;9.128;2023-12-20T15:17:45;6.60;99.90
10312;DHT22;5201;48.776;9.128;2023-12-20T15:20:11;7.00;99.90
10312;DHT22;5201;48.776;9.128;2023-12-20T15:22:37;6.50;99.90
10312;DHT22;5201;48.776;9.128;2023-12-20T15:25:03;6.50;99.90
10312;DHT22;5201;48.776;9.128;2023-12-20T15:27:31;6.50;99.90
10312;DHT22;5201;48.776;9.128;2023-12-20T15:29:58;6.40;99.90
10312;DHT22;5201;48.776;9.128;2023-12-20T15:32:24;6.20;99.90
10312;DHT22;5201;48.776;9.128;2023-12-20T15:34:49;6.20;99.90
10312;DHT22;5201;48.776;9.128;2023-12-20T15:37:16;6.20;99.90
10312;DHT22;5201;48.776;9.128;2023-12-20T15:39:42;6.10;99.90
10312;DHT22;5201;48.776;9.128;2023-12-20T15:42:08;6.00;99.90
10312;DHT22;5201;48.776;9.128;2023-12-20T15:44:33;6.10;99.90
10312;DHT22;5201;48.776;9.128;2023-12-20T15:46:59;6.20;99.90
10312;DHT22;5201;48.776;9.128;2023-12-20T15:49:24;6.20;99.90
10312;DHT22;5201;48.776;9.128;2023-12-20T15:51:50;6.20;99.90
10312;DHT22;5201;48.776;9.128;2023-12-20T15:54:16;6.30;99.90
10312;DHT22;5201;48.776;9.128;2023-12-20T15:56:41;6.40;99.90